Fort Lewis, Virginia
Current Conditions -  °F | °C
As of 8:54 AM on Friday 24 Oct 2014 (Local Time) from KROA Reporting Station
Broken Clouds Broken Clouds  
Wind Chill: 45°   Ceiling: 25000
Heat Index: 49°   Visibility: 10mi
Dew Point: 41°   Wind: 8mph
Humidity: 74%   Direction: 280°W
Pressure: 30.1"   Gusts: NA
Location:  37.2956°N, 80.1166°W
Report Text: KROA 241254Z 28007KT 10SM SCT130 BKN250 09/05 A3010 RMK AO2 SLP192 T00940050
Loading
Personal Weather Stations






























Interactive Weather Map
Tropical Storm Tracking
New forecast layout! Learn more

10-Day Weather Forecast

Advertisements
Track Severe Weather on mobile